sensor_id;sensor_type;location;lat;lon;timestamp;P1;durP1;ratioP1;P2;durP2;ratioP2
64903;SDS011;51401;48.882;12.598;2023-08-08T00:01:50;3.70;;;3.25;;
64903;SDS011;51401;48.882;12.598;2023-08-08T00:04:15;2.60;;;2.40;;
64903;SDS011;51401;48.882;12.598;2023-08-08T00:06:41;2.90;;;2.47;;
64903;SDS011;51401;48.882;12.598;2023-08-08T00:09:06;4.55;;;2.80;;
64903;SDS011;51401;48.882;12.598;2023-08-08T00:11:31;4.30;;;2.50;;
64903;SDS011;51401;48.882;12.598;2023-08-08T00:13:57;2.58;;;2.20;;
64903;SDS011;51401;48.882;12.598;2023-08-08T00:16:22;3.95;;;2.40;;
64903;SDS011;51401;48.882;12.598;2023-08-08T00:18:47;3.60;;;2.67;;
64903;SDS011;51401;48.882;12.598;2023-08-08T00:21:15;2.78;;;2.10;;
64903;SDS011;51401;48.882;12.598;2023-08-08T00:23:41;4.45;;;2.45;;
64903;SDS011;51401;48.882;12.598;2023-08-08T00:26:06;2.85;;;2.50;;
64903;SDS011;51401;48.882;12.598;2023-08-08T00:28:31;3.67;;;2.47;;
64903;SDS011;51401;48.882;12.598;2023-08-08T00:30:57;3.17;;;2.35;;
64903;SDS011;51401;48.882;12.598;2023-08-08T00:33:22;3.47;;;2.22;;
64903;SDS011;51401;48.882;12.598;2023-08-08T00:35:47;4.13;;;2.33;;
64903;SDS011;51401;48.882;12.598;2023-08-08T00:38:12;3.70;;;2.37;;
64903;SDS011;51401;48.882;12.598;2023-08-08T00:40:38;3.30;;;2.55;;
64903;SDS011;51401;48.882;12.598;2023-08-08T00:43:03;3.80;;;2.30;;
64903;SDS011;51401;48.882;12.598;2023-08-08T00:45:28;3.75;;;2.45;;
64903;SDS011;51401;48.882;12.598;2023-08-08T00:47:54;4.85;;;2.40;;
64903;SDS011;51401;48.882;12.598;2023-08-08T00:50:19;3.97;;;2.70;;
64903;SDS011;51401;48.882;12.598;2023-08-08T00:52:45;4.00;;;2.35;;
64903;SDS011;51401;48.882;12.598;2023-08-08T00:55:11;2.95;;;2.47;;
64903;SDS011;51401;48.882;12.598;2023-08-08T00:57:37;3.33;;;2.00;;
64903;SDS011;51401;48.882;12.598;2023-08-08T01:00:05;3.40;;;2.30;;
64903;SDS011;51401;48.882;12.598;2023-08-08T01:02:31;5.20;;;2.80;;
64903;SDS011;51401;48.882;12.598;2023-08-08T01:04:56;6.50;;;2.75;;
64903;SDS011;51401;48.882;12.598;2023-08-08T01:10:11;4.32;;;2.58;;
64903;SDS011;51401;48.882;12.598;2023-08-08T01:12:47;3.95;;;2.83;;
64903;SDS011;51401;48.882;12.598;2023-08-08T01:15:15;3.63;;;2.63;;
64903;SDS011;51401;48.882;12.598;2023-08-08T01:17:42;4.75;;;2.90;;
64903;SDS011;51401;48.882;12.598;2023-08-08T01:20:09;3.42;;;2.85;;
64903;SDS011;51401;48.882;12.598;2023-08-08T01:22:36;4.70;;;3.03;;
64903;SDS011;51401;48.882;12.598;2023-08-08T01:25:04;3.03;;;2.58;;
64903;SDS011;51401;48.882;12.598;2023-08-08T01:27:31;3.30;;;2.97;;
64903;SDS011;51401;48.882;12.598;2023-08-08T01:29:56;4.05;;;3.13;;
64903;SDS011;51401;48.882;12.598;2023-08-08T01:32:21;3.78;;;2.80;;
64903;SDS011;51401;48.882;12.598;2023-08-08T01:34:46;3.20;;;2.90;;
64903;SDS011;51401;48.882;12.598;2023-08-08T01:37:46;3.72;;;3.20;;
64903;SDS011;51401;48.882;12.598;2023-08-08T01:40:06;3.30;;;2.95;;
64903;SDS011;51401;48.882;12.598;2023-08-08T01:42:34;4.13;;;3.15;;
64903;SDS011;51401;48.882;12.598;2023-08-08T01:44:59;4.13;;;3.08;;
64903;SDS011;51401;48.882;12.598;2023-08-08T01:47:25;3.33;;;2.78;;
64903;SDS011;51401;48.882;12.598;2023-08-08T01:49:50;3.53;;;3.15;;
64903;SDS011;51401;48.882;12.598;2023-08-08T01:52:16;3.78;;;2.72;;
64903;SDS011;51401;48.882;12.598;2023-08-08T01:54:41;4.28;;;2.83;;
64903;SDS011;51401;48.882;12.598;2023-08-08T01:57:07;4.75;;;3.17;;
64903;SDS011;51401;48.882;12.598;2023-08-08T01:59:33;3.72;;;2.95;;
64903;SDS011;51401;48.882;12.598;2023-08-08T02:01:58;4.07;;;3.53;;
64903;SDS011;51401;48.882;12.598;2023-08-08T02:04:23;3.88;;;2.88;;
64903;SDS011;51401;48.882;12.598;2023-08-08T02:06:49;2.95;;;2.50;;
64903;SDS011;51401;48.882;12.598;2023-08-08T02:09:14;4.93;;;2.97;;
64903;SDS011;51401;48.882;12.598;2023-08-08T02:11:40;5.22;;;3.88;;
64903;SDS011;51401;48.882;12.598;2023-08-08T02:14:06;4.60;;;3.70;;
64903;SDS011;51401;48.882;12.598;2023-08-08T02:16:31;4.80;;;3.75;;
64903;SDS011;51401;48.882;12.598;2023-08-08T02:18:56;3.40;;;2.85;;
64903;SDS011;51401;48.882;12.598;2023-08-08T02:21:22;3.33;;;2.90;;
64903;SDS011;51401;48.882;12.598;2023-08-08T02:23:47;3.72;;;2.83;;
64903;SDS011;51401;48.882;12.598;2023-08-08T02:26:12;4.77;;;3.50;;
64903;SDS011;51401;48.882;12.598;2023-08-08T02:28:38;3.70;;;3.13;;
64903;SDS011;51401;48.882;12.598;2023-08-08T02:31:03;4.85;;;3.03;;
64903;SDS011;51401;48.882;12.598;2023-08-08T02:33:28;4.10;;;2.85;;
64903;SDS011;51401;48.882;12.598;2023-08-08T02:35:53;4.23;;;2.90;;
64903;SDS011;51401;48.882;12.598;2023-08-08T02:38:19;3.67;;;2.50;;
64903;SDS011;51401;48.882;12.598;2023-08-08T02:40:44;4.50;;;2.72;;
64903;SDS011;51401;48.882;12.598;2023-08-08T02:43:09;3.38;;;2.50;;
64903;SDS011;51401;48.882;12.598;2023-08-08T02:45:36;4.72;;;2.70;;
64903;SDS011;51401;48.882;12.598;2023-08-08T02:48:01;3.28;;;2.90;;
64903;SDS011;51401;48.882;12.598;2023-08-08T02:50:26;5.07;;;2.80;;
64903;SDS011;51401;48.882;12.598;2023-08-08T02:52:52;4.22;;;2.78;;
64903;SDS011;51401;48.882;12.598;2023-08-08T02:55:17;2.80;;;2.50;;
64903;SDS011;51401;48.882;12.598;2023-08-08T02:57:42;4.18;;;2.50;;
64903;SDS011;51401;48.882;12.598;2023-08-08T03:00:08;3.25;;;2.45;;
64903;SDS011;51401;48.882;12.598;2023-08-08T03:02:35;4.78;;;2.90;;
64903;SDS011;51401;48.882;12.598;2023-08-08T03:05:00;2.83;;;2.42;;
64903;SDS011;51401;48.882;12.598;2023-08-08T03:07:25;3.08;;;2.63;;
64903;SDS011;51401;48.882;12.598;2023-08-08T03:09:51;4.47;;;2.80;;
64903;SDS011;51401;48.882;12.598;2023-08-08T03:12:16;2.60;;;2.30;;
64903;SDS011;51401;48.882;12.598;2023-08-08T03:14:41;4.00;;;2.40;;
64903;SDS011;51401;48.882;12.598;2023-08-08T03:17:07;2.72;;;2.53;;
64903;SDS011;51401;48.882;12.598;2023-08-08T03:19:32;3.15;;;2.50;;
64903;SDS011;51401;48.882;12.598;2023-08-08T03:21:57;3.20;;;2.60;;
64903;SDS011;51401;48.882;12.598;2023-08-08T03:24:22;3.07;;;2.77;;
64903;SDS011;51401;48.882;12.598;2023-08-08T03:26:48;2.72;;;2.42;;
64903;SDS011;51401;48.882;12.598;2023-08-08T03:29:13;5.27;;;3.60;;
64903;SDS011;51401;48.882;12.598;2023-08-08T03:31:38;3.93;;;3.00;;
64903;SDS011;51401;48.882;12.598;2023-08-08T03:34:03;3.38;;;2.40;;
64903;SDS011;51401;48.882;12.598;2023-08-08T03:36:29;4.72;;;3.00;;
64903;SDS011;51401;48.882;12.598;2023-08-08T03:38:55;3.45;;;2.95;;
64903;SDS011;51401;48.882;12.598;2023-08-08T03:41:20;3.43;;;2.60;;
64903;SDS011;51401;48.882;12.598;2023-08-08T03:43:45;7.18;;;2.55;;
64903;SDS011;51401;48.882;12.598;2023-08-08T03:46:10;2.85;;;2.58;;
64903;SDS011;51401;48.882;12.598;2023-08-08T03:48:36;4.45;;;2.65;;
64903;SDS011;51401;48.882;12.598;2023-08-08T03:51:03;3.78;;;2.63;;
64903;SDS011;51401;48.882;12.598;2023-08-08T03:53:28;3.15;;;2.53;;
64903;SDS011;51401;48.882;12.598;2023-08-08T03:55:54;2.72;;;2.28;;
64903;SDS011;51401;48.882;12.598;2023-08-08T03:58:19;3.07;;;2.40;;
64903;SDS011;51401;48.882;12.598;2023-08-08T04:00:44;4.75;;;2.75;;
64903;SDS011;51401;48.882;12.598;2023-08-08T04:03:14;5.50;;;2.92;;
64903;SDS011;51401;48.882;12.598;2023-08-08T04:05:40;3.75;;;2.38;;
64903;SDS011;51401;48.882;12.598;2023-08-08T04:08:06;3.25;;;2.60;;
64903;SDS011;51401;48.882;12.598;2023-08-08T04:10:31;2.88;;;2.20;;
64903;SDS011;51401;48.882;12.598;2023-08-08T04:12:57;3.88;;;2.63;;
64903;SDS011;51401;48.882;12.598;2023-08-08T04:15:22;3.38;;;2.38;;
64903;SDS011;51401;48.882;12.598;2023-08-08T04:17:47;2.63;;;2.40;;
64903;SDS011;51401;48.882;12.598;2023-08-08T04:20:13;3.57;;;2.90;;
64903;SDS011;51401;48.882;12.598;2023-08-08T04:22:39;3.47;;;2.95;;
64903;SDS011;51401;48.882;12.598;2023-08-08T04:25:05;3.70;;;2.40;;
64903;SDS011;51401;48.882;12.598;2023-08-08T04:27:31;3.53;;;3.10;;
64903;SDS011;51401;48.882;12.598;2023-08-08T04:29:56;3.60;;;2.80;;
64903;SDS011;51401;48.882;12.598;2023-08-08T04:32:21;5.47;;;2.63;;
64903;SDS011;51401;48.882;12.598;2023-08-08T04:34:46;3.85;;;3.08;;
64903;SDS011;51401;48.882;12.598;2023-08-08T04:37:12;3.60;;;3.20;;
64903;SDS011;51401;48.882;12.598;2023-08-08T04:39:37;7.20;;;4.70;;
64903;SDS011;51401;48.882;12.598;2023-08-08T04:42:02;5.75;;;4.47;;
64903;SDS011;51401;48.882;12.598;2023-08-08T04:44:28;5.35;;;3.88;;
64903;SDS011;51401;48.882;12.598;2023-08-08T04:46:53;4.72;;;3.70;;
64903;SDS011;51401;48.882;12.598;2023-08-08T04:49:18;5.38;;;3.97;;
64903;SDS011;51401;48.882;12.598;2023-08-08T04:51:44;3.70;;;3.33;;
64903;SDS011;51401;48.882;12.598;2023-08-08T04:54:09;4.68;;;3.33;;
64903;SDS011;51401;48.882;12.598;2023-08-08T04:56:34;4.30;;;3.00;;
64903;SDS011;51401;48.882;12.598;2023-08-08T04:58:59;3.30;;;2.83;;
64903;SDS011;51401;48.882;12.598;2023-08-08T05:01:25;4.07;;;2.90;;
64903;SDS011;51401;48.882;12.598;2023-08-08T05:03:50;3.35;;;2.80;;
64903;SDS011;51401;48.882;12.598;2023-08-08T05:06:15;3.83;;;2.80;;
64903;SDS011;51401;48.882;12.598;2023-08-08T05:08:41;3.50;;;2.63;;
64903;SDS011;51401;48.882;12.598;2023-08-08T05:11:07;5.00;;;3.28;;
64903;SDS011;51401;48.882;12.598;2023-08-08T05:13:32;3.33;;;2.58;;
64903;SDS011;51401;48.882;12.598;2023-08-08T05:15:57;3.85;;;3.42;;
64903;SDS011;51401;48.882;12.598;2023-08-08T05:18:23;3.33;;;2.70;;
64903;SDS011;51401;48.882;12.598;2023-08-08T05:20:48;4.68;;;2.90;;
64903;SDS011;51401;48.882;12.598;2023-08-08T05:23:13;3.55;;;2.70;;
64903;SDS011;51401;48.882;12.598;2023-08-08T05:25:38;3.30;;;2.77;;
64903;SDS011;51401;48.882;12.598;2023-08-08T05:28:04;4.90;;;3.17;;
64903;SDS011;51401;48.882;12.598;2023-08-08T05:30:29;3.75;;;3.13;;
64903;SDS011;51401;48.882;12.598;2023-08-08T05:32:55;2.88;;;2.30;;
64903;SDS011;51401;48.882;12.598;2023-08-08T05:35:20;4.20;;;2.65;;
64903;SDS011;51401;48.882;12.598;2023-08-08T05:37:45;3.35;;;2.65;;
64903;SDS011;51401;48.882;12.598;2023-08-08T05:40:11;3.30;;;3.00;;
64903;SDS011;51401;48.882;12.598;2023-08-08T05:42:37;3.20;;;2.47;;
64903;SDS011;51401;48.882;12.598;2023-08-08T05:45:03;4.15;;;2.70;;
64903;SDS011;51401;48.882;12.598;2023-08-08T05:47:29;3.08;;;2.67;;
64903;SDS011;51401;48.882;12.598;2023-08-08T05:49:54;3.27;;;2.60;;
64903;SDS011;51401;48.882;12.598;2023-08-08T05:52:20;2.60;;;2.33;;
64903;SDS011;51401;48.882;12.598;2023-08-08T05:54:46;3.50;;;2.92;;
64903;SDS011;51401;48.882;12.598;2023-08-08T05:57:11;2.75;;;2.17;;
64903;SDS011;51401;48.882;12.598;2023-08-08T05:59:36;3.10;;;2.35;;
64903;SDS011;51401;48.882;12.598;2023-08-08T06:02:02;3.13;;;2.53;;
64903;SDS011;51401;48.882;12.598;2023-08-08T06:04:27;2.67;;;2.20;;
64903;SDS011;51401;48.882;12.598;2023-08-08T06:06:52;3.97;;;2.17;;
64903;SDS011;51401;48.882;12.598;2023-08-08T06:09:18;4.38;;;2.40;;
64903;SDS011;51401;48.882;12.598;2023-08-08T06:11:43;3.80;;;2.15;;
64903;SDS011;51401;48.882;12.598;2023-08-08T06:14:09;2.35;;;2.00;;
64903;SDS011;51401;48.882;12.598;2023-08-08T06:16:34;3.83;;;2.37;;
64903;SDS011;51401;48.882;12.598;2023-08-08T06:18:59;3.27;;;1.87;;
64903;SDS011;51401;48.882;12.598;2023-08-08T06:21:24;2.97;;;1.77;;
64903;SDS011;51401;48.882;12.598;2023-08-08T06:23:50;2.10;;;1.53;;
64903;SDS011;51401;48.882;12.598;2023-08-08T06:26:17;3.13;;;1.48;;
64903;SDS011;51401;48.882;12.598;2023-08-08T06:28:42;3.25;;;1.67;;
64903;SDS011;51401;48.882;12.598;2023-08-08T06:31:08;1.63;;;1.47;;
64903;SDS011;51401;48.882;12.598;2023-08-08T06:33:33;1.70;;;1.40;;
64903;SDS011;51401;48.882;12.598;2023-08-08T06:35:58;3.10;;;1.50;;
64903;SDS011;51401;48.882;12.598;2023-08-08T06:38:23;1.47;;;1.30;;
64903;SDS011;51401;48.882;12.598;2023-08-08T06:40:49;1.70;;;1.55;;
64903;SDS011;51401;48.882;12.598;2023-08-08T06:43:14;2.00;;;1.52;;
64903;SDS011;51401;48.882;12.598;2023-08-08T06:45:39;2.03;;;1.52;;
64903;SDS011;51401;48.882;12.598;2023-08-08T06:48:05;2.30;;;1.70;;
64903;SDS011;51401;48.882;12.598;2023-08-08T06:50:31;1.83;;;1.40;;
64903;SDS011;51401;48.882;12.598;2023-08-08T06:52:56;3.50;;;1.70;;
64903;SDS011;51401;48.882;12.598;2023-08-08T06:55:21;2.03;;;1.87;;
64903;SDS011;51401;48.882;12.598;2023-08-08T06:57:46;1.88;;;1.70;;
64903;SDS011;51401;48.882;12.598;2023-08-08T07:00:12;2.00;;;1.70;;
64903;SDS011;51401;48.882;12.598;2023-08-08T07:02:38;3.47;;;1.52;;
64903;SDS011;51401;48.882;12.598;2023-08-08T07:05:03;3.00;;;1.80;;
64903;SDS011;51401;48.882;12.598;2023-08-08T07:07:29;2.05;;;1.63;;
64903;SDS011;51401;48.882;12.598;2023-08-08T07:09:55;3.30;;;1.50;;
64903;SDS011;51401;48.882;12.598;2023-08-08T07:12:21;1.98;;;1.40;;
64903;SDS011;51401;48.882;12.598;2023-08-08T07:14:47;1.75;;;1.60;;
64903;SDS011;51401;48.882;12.598;2023-08-08T07:17:12;1.60;;;1.40;;
64903;SDS011;51401;48.882;12.598;2023-08-08T07:19:37;1.80;;;1.37;;
64903;SDS011;51401;48.882;12.598;2023-08-08T07:22:02;2.10;;;1.40;;
64903;SDS011;51401;48.882;12.598;2023-08-08T07:24:28;1.80;;;1.60;;
64903;SDS011;51401;48.882;12.598;2023-08-08T07:26:54;2.78;;;1.45;;
64903;SDS011;51401;48.882;12.598;2023-08-08T07:29:20;1.98;;;1.50;;
64903;SDS011;51401;48.882;12.598;2023-08-08T07:31:46;1.90;;;1.40;;
64903;SDS011;51401;48.882;12.598;2023-08-08T07:34:11;1.93;;;1.53;;
64903;SDS011;51401;48.882;12.598;2023-08-08T07:36:36;2.93;;;1.40;;
64903;SDS011;51401;48.882;12.598;2023-08-08T07:39:02;1.58;;;1.17;;
64903;SDS011;51401;48.882;12.598;2023-08-08T07:41:29;5.38;;;1.52;;
64903;SDS011;51401;48.882;12.598;2023-08-08T07:43:55;2.60;;;1.30;;
64903;SDS011;51401;48.882;12.598;2023-08-08T07:46:20;1.95;;;1.33;;
64903;SDS011;51401;48.882;12.598;2023-08-08T07:48:45;2.10;;;1.30;;
64903;SDS011;51401;48.882;12.598;2023-08-08T07:51:11;2.00;;;1.20;;
64903;SDS011;51401;48.882;12.598;2023-08-08T07:53:36;1.92;;;1.40;;
64903;SDS011;51401;48.882;12.598;2023-08-08T07:56:01;1.93;;;1.30;;
64903;SDS011;51401;48.882;12.598;2023-08-08T07:58:27;2.15;;;0.95;;
64903;SDS011;51401;48.882;12.598;2023-08-08T08:00:52;2.10;;;1.20;;
64903;SDS011;51401;48.882;12.598;2023-08-08T08:03:19;1.92;;;1.30;;
64903;SDS011;51401;48.882;12.598;2023-08-08T08:05:44;2.10;;;1.40;;
64903;SDS011;51401;48.882;12.598;2023-08-08T08:08:10;1.88;;;1.17;;
64903;SDS011;51401;48.882;12.598;2023-08-08T08:10:35;1.10;;;1.00;;
64903;SDS011;51401;48.882;12.598;2023-08-08T08:13:00;2.72;;;1.40;;
64903;SDS011;51401;48.882;12.598;2023-08-08T08:15:26;1.55;;;1.00;;
64903;SDS011;51401;48.882;12.598;2023-08-08T08:17:51;1.35;;;1.17;;
64903;SDS011;51401;48.882;12.598;2023-08-08T08:20:16;1.70;;;1.20;;
64903;SDS011;51401;48.882;12.598;2023-08-08T08:22:41;3.97;;;1.43;;
64903;SDS011;51401;48.882;12.598;2023-08-08T08:25:07;1.63;;;1.20;;
64903;SDS011;51401;48.882;12.598;2023-08-08T08:27:35;4.32;;;1.42;;
64903;SDS011;51401;48.882;12.598;2023-08-08T08:30:06;1.73;;;1.20;;
64903;SDS011;51401;48.882;12.598;2023-08-08T08:32:34;2.17;;;1.00;;
64903;SDS011;51401;48.882;12.598;2023-08-08T08:35:03;1.80;;;1.02;;
64903;SDS011;51401;48.882;12.598;2023-08-08T08:37:29;1.60;;;1.38;;
64903;SDS011;51401;48.882;12.598;2023-08-08T08:39:55;1.55;;;1.20;;
64903;SDS011;51401;48.882;12.598;2023-08-08T08:42:20;1.83;;;1.20;;
64903;SDS011;51401;48.882;12.598;2023-08-08T08:44:47;1.90;;;1.40;;
64903;SDS011;51401;48.882;12.598;2023-08-08T08:47:14;1.90;;;1.27;;
64903;SDS011;51401;48.882;12.598;2023-08-08T08:49:42;4.38;;;1.25;;
64903;SDS011;51401;48.882;12.598;2023-08-08T08:52:10;1.38;;;1.10;;
64903;SDS011;51401;48.882;12.598;2023-08-08T08:54:36;2.58;;;1.33;;
64903;SDS011;51401;48.882;12.598;2023-08-08T08:57:02;1.73;;;1.30;;
64903;SDS011;51401;48.882;12.598;2023-08-08T08:59:28;1.33;;;1.20;;
64903;SDS011;51401;48.882;12.598;2023-08-08T09:01:53;1.33;;;1.10;;
64903;SDS011;51401;48.882;12.598;2023-08-08T09:04:20;1.75;;;1.33;;
64903;SDS011;51401;48.882;12.598;2023-08-08T09:06:46;2.88;;;1.30;;
64903;SDS011;51401;48.882;12.598;2023-08-08T09:09:12;1.90;;;1.23;;
64903;SDS011;51401;48.882;12.598;2023-08-08T09:11:39;2.10;;;1.20;;
64903;SDS011;51401;48.882;12.598;2023-08-08T09:14:14;1.48;;;1.13;;
64903;SDS011;51401;48.882;12.598;2023-08-08T09:16:42;2.22;;;1.27;;
64903;SDS011;51401;48.882;12.598;2023-08-08T09:19:07;3.10;;;1.33;;
64903;SDS011;51401;48.882;12.598;2023-08-08T09:21:33;2.53;;;1.33;;
64903;SDS011;51401;48.882;12.598;2023-08-08T09:23:58;3.40;;;1.30;;
64903;SDS011;51401;48.882;12.598;2023-08-08T09:26:24;1.85;;;1.20;;
64903;SDS011;51401;48.882;12.598;2023-08-08T09:28:49;3.78;;;1.42;;
64903;SDS011;51401;48.882;12.598;2023-08-08T09:31:15;2.20;;;1.30;;
64903;SDS011;51401;48.882;12.598;2023-08-08T09:33:41;1.83;;;1.00;;
64903;SDS011;51401;48.882;12.598;2023-08-08T09:36:08;1.45;;;1.20;;
64903;SDS011;51401;48.882;12.598;2023-08-08T09:38:39;2.25;;;1.27;;
64903;SDS011;51401;48.882;12.598;2023-08-08T09:41:05;1.90;;;1.20;;
64903;SDS011;51401;48.882;12.598;2023-08-08T09:43:30;2.42;;;1.38;;
64903;SDS011;51401;48.882;12.598;2023-08-08T09:45:55;2.45;;;1.52;;
64903;SDS011;51401;48.882;12.598;2023-08-08T09:48:20;1.77;;;1.07;;
64903;SDS011;51401;48.882;12.598;2023-08-08T09:50:46;4.07;;;1.30;;
64903;SDS011;51401;48.882;12.598;2023-08-08T09:53:12;2.15;;;1.10;;
64903;SDS011;51401;48.882;12.598;2023-08-08T09:55:38;3.03;;;1.35;;
64903;SDS011;51401;48.882;12.598;2023-08-08T09:58:04;3.05;;;1.10;;
64903;SDS011;51401;48.882;12.598;2023-08-08T10:00:30;2.25;;;1.48;;
64903;SDS011;51401;48.882;12.598;2023-08-08T10:02:56;1.33;;;1.20;;
64903;SDS011;51401;48.882;12.598;2023-08-08T10:05:21;1.27;;;1.13;;
64903;SDS011;51401;48.882;12.598;2023-08-08T10:07:47;1.98;;;1.20;;
64903;SDS011;51401;48.882;12.598;2023-08-08T10:10:13;2.08;;;1.02;;
64903;SDS011;51401;48.882;12.598;2023-08-08T10:12:39;1.95;;;1.10;;
64903;SDS011;51401;48.882;12.598;2023-08-08T10:15:09;4.70;;;2.63;;
64903;SDS011;51401;48.882;12.598;2023-08-08T10:17:36;2.65;;;1.40;;
64903;SDS011;51401;48.882;12.598;2023-08-08T10:20:02;1.85;;;1.30;;
64903;SDS011;51401;48.882;12.598;2023-08-08T10:22:36;1.45;;;1.08;;
64903;SDS011;51401;48.882;12.598;2023-08-08T10:25:06;2.15;;;1.10;;
64903;SDS011;51401;48.882;12.598;2023-08-08T10:27:33;1.60;;;1.15;;
64903;SDS011;51401;48.882;12.598;2023-08-08T10:30:01;1.20;;;1.10;;
64903;SDS011;51401;48.882;12.598;2023-08-08T10:32:37;2.80;;;1.48;;
64903;SDS011;51401;48.882;12.598;2023-08-08T10:35:03;1.30;;;0.95;;
64903;SDS011;51401;48.882;12.598;2023-08-08T10:37:31;2.55;;;1.60;;
64903;SDS011;51401;48.882;12.598;2023-08-08T10:39:59;2.53;;;1.23;;
64903;SDS011;51401;48.882;12.598;2023-08-08T10:42:30;1.42;;;1.20;;
64903;SDS011;51401;48.882;12.598;2023-08-08T10:44:57;2.40;;;1.50;;
64903;SDS011;51401;48.882;12.598;2023-08-08T10:47:30;1.63;;;1.15;;
64903;SDS011;51401;48.882;12.598;2023-08-08T10:50:06;1.73;;;1.10;;
64903;SDS011;51401;48.882;12.598;2023-08-08T10:53:07;1.70;;;1.23;;
64903;SDS011;51401;48.882;12.598;2023-08-08T10:55:30;1.95;;;1.20;;
64903;SDS011;51401;48.882;12.598;2023-08-08T10:57:58;1.55;;;1.30;;
64903;SDS011;51401;48.882;12.598;2023-08-08T11:00:28;1.73;;;0.85;;
64903;SDS011;51401;48.882;12.598;2023-08-08T11:02:57;2.28;;;1.20;;
64903;SDS011;51401;48.882;12.598;2023-08-08T11:05:23;3.10;;;1.30;;
64903;SDS011;51401;48.882;12.598;2023-08-08T11:07:49;1.55;;;1.00;;
64903;SDS011;51401;48.882;12.598;2023-08-08T11:10:15;2.35;;;1.75;;
64903;SDS011;51401;48.882;12.598;2023-08-08T11:12:40;1.50;;;1.20;;
64903;SDS011;51401;48.882;12.598;2023-08-08T11:15:06;1.58;;;1.20;;
64903;SDS011;51401;48.882;12.598;2023-08-08T11:17:31;1.90;;;1.20;;
64903;SDS011;51401;48.882;12.598;2023-08-08T11:19:57;3.13;;;1.30;;
64903;SDS011;51401;48.882;12.598;2023-08-08T11:22:22;1.83;;;1.37;;
64903;SDS011;51401;48.882;12.598;2023-08-08T11:24:48;1.88;;;1.42;;
64903;SDS011;51401;48.882;12.598;2023-08-08T11:27:15;1.42;;;1.27;;
64903;SDS011;51401;48.882;12.598;2023-08-08T11:29:40;3.33;;;1.33;;
64903;SDS011;51401;48.882;12.598;2023-08-08T11:32:05;1.60;;;1.33;;
64903;SDS011;51401;48.882;12.598;2023-08-08T11:34:32;1.88;;;1.30;;
64903;SDS011;51401;48.882;12.598;2023-08-08T11:36:57;2.10;;;1.27;;
64903;SDS011;51401;48.882;12.598;2023-08-08T11:39:24;1.60;;;1.30;;
64903;SDS011;51401;48.882;12.598;2023-08-08T11:41:49;2.17;;;1.27;;
64903;SDS011;51401;48.882;12.598;2023-08-08T11:44:15;3.72;;;1.30;;
64903;SDS011;51401;48.882;12.598;2023-08-08T11:46:44;1.88;;;1.40;;
64903;SDS011;51401;48.882;12.598;2023-08-08T11:49:11;2.70;;;1.30;;
64903;SDS011;51401;48.882;12.598;2023-08-08T11:51:39;1.33;;;1.10;;
64903;SDS011;51401;48.882;12.598;2023-08-08T11:54:04;3.70;;;1.27;;
64903;SDS011;51401;48.882;12.598;2023-08-08T11:56:32;2.67;;;1.20;;
64903;SDS011;51401;48.882;12.598;2023-08-08T11:58:59;1.77;;;1.33;;
64903;SDS011;51401;48.882;12.598;2023-08-08T12:01:24;2.78;;;1.23;;
64903;SDS011;51401;48.882;12.598;2023-08-08T12:03:50;2.28;;;1.30;;
64903;SDS011;51401;48.882;12.598;2023-08-08T12:06:16;2.88;;;1.58;;
64903;SDS011;51401;48.882;12.598;2023-08-08T12:08:42;1.33;;;1.20;;
64903;SDS011;51401;48.882;12.598;2023-08-08T12:11:12;1.75;;;1.30;;
64903;SDS011;51401;48.882;12.598;2023-08-08T12:13:40;2.70;;;1.40;;
64903;SDS011;51401;48.882;12.598;2023-08-08T12:16:07;2.28;;;1.45;;
64903;SDS011;51401;48.882;12.598;2023-08-08T12:18:33;2.00;;;1.60;;
64903;SDS011;51401;48.882;12.598;2023-08-08T12:21:00;1.55;;;1.25;;
64903;SDS011;51401;48.882;12.598;2023-08-08T12:23:26;2.08;;;1.48;;
64903;SDS011;51401;48.882;12.598;2023-08-08T12:25:52;2.13;;;1.50;;
64903;SDS011;51401;48.882;12.598;2023-08-08T12:28:18;1.77;;;1.20;;
64903;SDS011;51401;48.882;12.598;2023-08-08T12:30:43;2.63;;;1.83;;
64903;SDS011;51401;48.882;12.598;2023-08-08T12:33:08;1.23;;;1.10;;
64903;SDS011;51401;48.882;12.598;2023-08-08T12:35:34;2.80;;;1.70;;
64903;SDS011;51401;48.882;12.598;2023-08-08T12:37:59;2.92;;;1.52;;
64903;SDS011;51401;48.882;12.598;2023-08-08T12:40:24;2.25;;;1.30;;
64903;SDS011;51401;48.882;12.598;2023-08-08T12:42:50;1.90;;;1.25;;
64903;SDS011;51401;48.882;12.598;2023-08-08T12:45:15;2.30;;;1.23;;
64903;SDS011;51401;48.882;12.598;2023-08-08T12:47:42;1.50;;;1.10;;
64903;SDS011;51401;48.882;12.598;2023-08-08T12:50:08;1.90;;;1.50;;
64903;SDS011;51401;48.882;12.598;2023-08-08T12:52:34;1.98;;;1.48;;
64903;SDS011;51401;48.882;12.598;2023-08-08T12:54:59;1.92;;;1.52;;
64903;SDS011;51401;48.882;12.598;2023-08-08T12:57:25;2.83;;;2.05;;
64903;SDS011;51401;48.882;12.598;2023-08-08T12:59:50;1.80;;;1.40;;
64903;SDS011;51401;48.882;12.598;2023-08-08T13:02:15;2.35;;;1.58;;
64903;SDS011;51401;48.882;12.598;2023-08-08T13:04:41;2.60;;;1.30;;
64903;SDS011;51401;48.882;12.598;2023-08-08T13:07:06;1.87;;;1.30;;
64903;SDS011;51401;48.882;12.598;2023-08-08T13:09:32;2.53;;;1.42;;
64903;SDS011;51401;48.882;12.598;2023-08-08T13:11:58;2.30;;;1.40;;
64903;SDS011;51401;48.882;12.598;2023-08-08T13:14:23;2.03;;;1.60;;
64903;SDS011;51401;48.882;12.598;2023-08-08T13:16:48;1.67;;;1.38;;
64903;SDS011;51401;48.882;12.598;2023-08-08T13:19:14;2.55;;;1.20;;
64903;SDS011;51401;48.882;12.598;2023-08-08T13:21:44;2.03;;;1.55;;
64903;SDS011;51401;48.882;12.598;2023-08-08T13:24:09;1.90;;;1.38;;
64903;SDS011;51401;48.882;12.598;2023-08-08T13:26:37;1.70;;;1.30;;
64903;SDS011;51401;48.882;12.598;2023-08-08T13:29:03;1.77;;;1.30;;
64903;SDS011;51401;48.882;12.598;2023-08-08T13:31:28;2.80;;;1.60;;
64903;SDS011;51401;48.882;12.598;2023-08-08T13:33:53;3.83;;;1.67;;
64903;SDS011;51401;48.882;12.598;2023-08-08T13:36:19;3.03;;;1.67;;
64903;SDS011;51401;48.882;12.598;2023-08-08T13:38:44;1.50;;;1.30;;
64903;SDS011;51401;48.882;12.598;2023-08-08T13:41:10;2.40;;;1.60;;
64903;SDS011;51401;48.882;12.598;2023-08-08T13:43:35;3.10;;;1.47;;
64903;SDS011;51401;48.882;12.598;2023-08-08T13:46:00;1.60;;;1.30;;
64903;SDS011;51401;48.882;12.598;2023-08-08T13:48:27;1.95;;;1.48;;
64903;SDS011;51401;48.882;12.598;2023-08-08T13:50:52;2.33;;;1.40;;
64903;SDS011;51401;48.882;12.598;2023-08-08T13:53:18;2.20;;;1.57;;
64903;SDS011;51401;48.882;12.598;2023-08-08T13:55:44;2.63;;;1.40;;
64903;SDS011;51401;48.882;12.598;2023-08-08T13:58:09;3.15;;;1.50;;
64903;SDS011;51401;48.882;12.598;2023-08-08T14:00:35;2.17;;;1.33;;
64903;SDS011;51401;48.882;12.598;2023-08-08T14:03:01;1.88;;;1.50;;
64903;SDS011;51401;48.882;12.598;2023-08-08T14:05:27;1.80;;;1.40;;
64903;SDS011;51401;48.882;12.598;2023-08-08T14:07:53;2.78;;;1.70;;
64903;SDS011;51401;48.882;12.598;2023-08-08T14:10:18;1.83;;;1.55;;
64903;SDS011;51401;48.882;12.598;2023-08-08T14:12:44;2.22;;;1.40;;
64903;SDS011;51401;48.882;12.598;2023-08-08T14:15:09;2.83;;;1.25;;
64903;SDS011;51401;48.882;12.598;2023-08-08T14:17:37;1.35;;;1.20;;
64903;SDS011;51401;48.882;12.598;2023-08-08T14:20:02;1.63;;;1.25;;
64903;SDS011;51401;48.882;12.598;2023-08-08T14:22:27;2.95;;;1.48;;
64903;SDS011;51401;48.882;12.598;2023-08-08T14:24:53;2.27;;;1.40;;
64903;SDS011;51401;48.882;12.598;2023-08-08T14:27:18;2.17;;;1.50;;
64903;SDS011;51401;48.882;12.598;2023-08-08T14:29:44;1.38;;;1.13;;